createdAt,value
2018-11-26T00:00:17.477Z,100.00
2018-11-26T00:02:45.555Z,100.00
2018-11-26T00:05:13.620Z,100.00
2018-11-26T00:07:41.688Z,100.00
2018-11-26T00:10:21.112Z,100.00
2018-11-26T00:12:49.176Z,100.00
2018-11-26T00:15:17.232Z,100.00
2018-11-26T00:17:45.354Z,100.00
2018-11-26T00:20:13.396Z,100.00
2018-11-26T00:22:41.448Z,100.00
2018-11-26T00:25:09.196Z,100.00
2018-11-26T00:27:37.309Z,100.00
2018-11-26T00:30:06.596Z,100.00
2018-11-26T00:32:34.673Z,100.00
2018-11-26T00:35:02.768Z,100.00
2018-11-26T00:37:30.832Z,100.00
2018-11-26T00:39:58.920Z,100.00
2018-11-26T00:42:26.984Z,100.00
2018-11-26T00:44:55.078Z,100.00
2018-11-26T00:47:23.137Z,100.00
2018-11-26T00:49:51.192Z,100.00
2018-11-26T00:52:19.292Z,100.00
2018-11-26T00:54:47.363Z,100.00
2018-11-26T00:57:15.429Z,100.00
2018-11-26T00:59:43.537Z,100.00
2018-11-26T01:02:19.954Z,100.00
2018-11-26T01:04:48.066Z,100.00
2018-11-26T01:07:16.197Z,100.00
2018-11-26T01:09:44.278Z,100.00
2018-11-26T01:12:12.396Z,100.00
2018-11-26T01:14:40.489Z,100.00
2018-11-26T01:17:08.582Z,100.00
2018-11-26T01:19:36.697Z,100.00
2018-11-26T01:22:04.810Z,100.00
2018-11-26T01:24:32.925Z,100.00
2018-11-26T01:27:01.021Z,100.00
2018-11-26T01:29:29.125Z,100.00
2018-11-26T01:31:57.195Z,100.00
2018-11-26T01:34:25.302Z,100.00
2018-11-26T01:36:53.419Z,100.00
2018-11-26T01:39:21.494Z,100.00
2018-11-26T01:41:49.597Z,100.00
2018-11-26T01:44:17.689Z,100.00
2018-11-26T01:46:45.815Z,100.00
2018-11-26T01:49:13.934Z,100.00
2018-11-26T01:51:42.058Z,100.00
2018-11-26T01:54:10.153Z,100.00
2018-11-26T01:56:38.277Z,100.00
2018-11-26T01:59:06.419Z,100.00
2018-11-26T02:01:34.545Z,100.00
2018-11-26T02:04:02.689Z,100.00
2018-11-26T02:06:30.819Z,100.00
2018-11-26T02:08:58.913Z,100.00
2018-11-26T02:11:27.022Z,100.00
2018-11-26T02:13:55.143Z,100.00
2018-11-26T02:16:23.250Z,100.00
2018-11-26T02:18:51.487Z,100.00
2018-11-26T02:21:19.566Z,100.00
2018-11-26T02:23:47.665Z,100.00
2018-11-26T02:26:15.766Z,100.00
2018-11-26T02:28:43.892Z,100.00
2018-11-26T02:31:12.006Z,100.00
2018-11-26T02:33:40.691Z,100.00
2018-11-26T02:36:08.787Z,100.00
2018-11-26T02:38:36.917Z,100.00
2018-11-26T02:41:05.427Z,100.00
2018-11-26T02:43:33.550Z,100.00
2018-11-26T02:46:01.654Z,100.00
2018-11-26T02:48:29.773Z,100.00
2018-11-26T02:50:57.976Z,100.00
2018-11-26T02:53:26.098Z,100.00
2018-11-26T02:55:54.213Z,100.00
2018-11-26T02:58:22.339Z,100.00
2018-11-26T03:00:50.477Z,100.00
2018-11-26T03:03:18.585Z,100.00
2018-11-26T03:05:46.697Z,100.00
2018-11-26T03:08:14.818Z,100.00
2018-11-26T03:10:42.953Z,100.00
2018-11-26T03:13:11.074Z,100.00
2018-11-26T03:15:39.214Z,100.00
2018-11-26T03:18:07.305Z,100.00
2018-11-26T03:20:35.378Z,100.00
2018-11-26T03:23:03.503Z,100.00
2018-11-26T03:25:31.610Z,100.00
2018-11-26T03:27:59.725Z,100.00
2018-11-26T03:30:27.866Z,100.00
2018-11-26T03:32:55.981Z,100.00
2018-11-26T03:35:24.086Z,100.00
2018-11-26T03:37:52.193Z,100.00
2018-11-26T03:40:20.282Z,100.00
2018-11-26T03:42:48.380Z,100.00
2018-11-26T03:45:17.564Z,100.00
2018-11-26T03:47:45.695Z,100.00
2018-11-26T03:50:14.379Z,100.00
2018-11-26T03:52:44.063Z,100.00
2018-11-26T03:55:12.366Z,100.00
2018-11-26T03:57:40.449Z,100.00
2018-11-26T04:00:11.970Z,100.00
2018-11-26T04:02:40.063Z,100.00
2018-11-26T04:05:09.053Z,100.00
2018-11-26T04:07:37.157Z,100.00
2018-11-26T04:10:07.254Z,100.00
2018-11-26T04:12:35.391Z,100.00
2018-11-26T04:15:03.485Z,100.00
2018-11-26T04:17:31.620Z,100.00
2018-11-26T04:19:59.719Z,100.00
2018-11-26T04:22:27.831Z,100.00
2018-11-26T04:24:55.925Z,100.00
2018-11-26T04:27:24.059Z,100.00
2018-11-26T04:29:52.162Z,100.00
2018-11-26T04:32:20.279Z,100.00
2018-11-26T04:34:48.408Z,100.00
2018-11-26T04:37:16.563Z,100.00
2018-11-26T04:39:44.666Z,100.00
2018-11-26T04:42:12.768Z,100.00
2018-11-26T04:44:40.915Z,100.00
2018-11-26T04:47:09.001Z,100.00
2018-11-26T04:49:37.168Z,100.00
2018-11-26T04:52:05.576Z,100.00
2018-11-26T04:54:33.664Z,100.00
2018-11-26T04:57:01.774Z,100.00
2018-11-26T04:59:29.889Z,100.00
2018-11-26T05:01:57.972Z,100.00
2018-11-26T05:04:26.115Z,100.00
2018-11-26T05:06:54.202Z,100.00
2018-11-26T05:09:22.308Z,100.00
2018-11-26T05:11:50.393Z,100.00
2018-11-26T05:14:18.566Z,100.00
2018-11-26T05:16:46.682Z,100.00
2018-11-26T05:19:14.786Z,100.00
2018-11-26T05:21:42.881Z,100.00
2018-11-26T05:24:11.000Z,100.00
2018-11-26T05:26:39.084Z,100.00
2018-11-26T05:29:07.173Z,100.00
2018-11-26T05:31:35.280Z,100.00
2018-11-26T05:34:03.372Z,100.00
2018-11-26T05:36:31.566Z,100.00
2018-11-26T05:38:59.654Z,100.00
2018-11-26T05:41:27.790Z,100.00
2018-11-26T05:43:56.107Z,100.00
2018-11-26T05:46:24.281Z,100.00
2018-11-26T05:48:52.416Z,100.00
2018-11-26T05:51:20.512Z,100.00
2018-11-26T05:53:48.610Z,100.00
2018-11-26T05:56:16.770Z,100.00
2018-11-26T05:58:44.882Z,100.00
2018-11-26T06:01:12.986Z,100.00
2018-11-26T06:03:41.917Z,100.00
2018-11-26T06:06:10.073Z,100.00
2018-11-26T06:08:38.157Z,100.00
2018-11-26T06:11:06.257Z,100.00
2018-11-26T06:13:34.358Z,100.00
2018-11-26T06:16:02.497Z,100.00
2018-11-26T06:18:30.611Z,100.00
2018-11-26T06:20:58.690Z,100.00
2018-11-26T06:23:26.834Z,100.00
2018-11-26T06:25:54.904Z,100.00
2018-11-26T06:28:23.047Z,100.00
2018-11-26T06:30:51.129Z,100.00
2018-11-26T06:33:19.242Z,100.00
2018-11-26T06:35:47.338Z,100.00
2018-11-26T06:38:15.434Z,100.00
2018-11-26T06:40:43.517Z,100.00
2018-11-26T06:43:11.614Z,100.00
2018-11-26T06:45:39.734Z,100.00
2018-11-26T06:48:07.840Z,100.00
2018-11-26T06:50:35.933Z,100.00
2018-11-26T06:53:04.072Z,100.00
2018-11-26T06:55:32.188Z,100.00
2018-11-26T06:58:00.270Z,100.00
2018-11-26T07:00:28.369Z,100.00
2018-11-26T07:02:56.490Z,100.00
2018-11-26T07:05:24.607Z,100.00
2018-11-26T07:07:52.773Z,100.00
2018-11-26T07:10:21.714Z,100.00
2018-11-26T07:12:49.858Z,100.00
2018-11-26T07:15:20.691Z,100.00
2018-11-26T07:17:49.589Z,100.00
2018-11-26T07:20:18.695Z,100.00
2018-11-26T07:22:46.789Z,100.00
2018-11-26T07:25:15.970Z,100.00
2018-11-26T07:27:45.282Z,100.00
2018-11-26T07:30:16.485Z,100.00
2018-11-26T07:32:44.729Z,100.00
2018-11-26T07:35:13.394Z,100.00
2018-11-26T07:37:41.611Z,100.00
2018-11-26T07:40:12.632Z,100.00
2018-11-26T07:42:43.164Z,100.00
2018-11-26T07:45:12.507Z,100.00
2018-11-26T07:47:41.340Z,100.00
2018-11-26T07:50:11.997Z,100.00
2018-11-26T07:52:40.118Z,100.00
2018-11-26T07:55:10.126Z,100.00
2018-11-26T07:57:38.958Z,100.00
2018-11-26T08:00:17.280Z,100.00
2018-11-26T08:02:45.623Z,100.00
2018-11-26T08:05:14.813Z,100.00
2018-11-26T08:07:42.949Z,100.00
2018-11-26T08:10:12.247Z,100.00
2018-11-26T08:12:40.491Z,100.00
2018-11-26T08:15:10.782Z,100.00
2018-11-26T08:17:38.878Z,100.00
2018-11-26T08:20:07.987Z,100.00
2018-11-26T08:22:36.130Z,100.00
2018-11-26T08:25:05.121Z,100.00
2018-11-26T08:27:33.240Z,100.00
2018-11-26T08:30:01.355Z,100.00
2018-11-26T08:32:34.000Z,100.00
2018-11-26T08:34:57.598Z,100.00
2018-11-26T08:37:31.207Z,100.00
2018-11-26T08:40:04.681Z,100.00
2018-11-26T08:43:06.871Z,100.00
2018-11-26T08:45:36.894Z,100.00
2018-11-26T08:48:10.314Z,100.00
2018-11-26T08:50:38.841Z,100.00
2018-11-26T08:53:06.935Z,100.00
2018-11-26T08:55:34.985Z,100.00
2018-11-26T08:58:03.102Z,100.00
2018-11-26T09:00:31.204Z,100.00
2018-11-26T09:03:03.288Z,100.00
2018-11-26T09:05:36.896Z,100.00
2018-11-26T09:08:05.016Z,100.00
2018-11-26T09:10:33.106Z,100.00
2018-11-26T09:13:01.213Z,100.00
2018-11-26T09:15:29.377Z,100.00
2018-11-26T09:17:57.515Z,100.00
2018-11-26T09:20:25.614Z,100.00
2018-11-26T09:22:53.721Z,100.00
2018-11-26T09:25:21.832Z,100.00
2018-11-26T09:27:49.949Z,100.00
2018-11-26T09:30:18.047Z,100.00
2018-11-26T09:32:46.147Z,100.00
2018-11-26T09:35:15.554Z,100.00
2018-11-26T09:37:43.646Z,100.00
2018-11-26T09:40:16.017Z,100.00
2018-11-26T09:42:45.046Z,100.00
2018-11-26T09:45:17.267Z,100.00
2018-11-26T09:47:45.542Z,100.00
2018-11-26T09:50:16.010Z,100.00
2018-11-26T09:52:44.118Z,100.00
2018-11-26T09:55:12.953Z,100.00
2018-11-26T09:57:41.171Z,100.00
2018-11-26T10:00:17.061Z,100.00
2018-11-26T10:02:46.319Z,100.00
2018-11-26T10:05:15.824Z,100.00
2018-11-26T10:07:43.942Z,100.00
2018-11-26T10:10:12.683Z,100.00
2018-11-26T10:12:41.430Z,100.00
2018-11-26T10:15:14.659Z,100.00
2018-11-26T10:17:42.788Z,100.00
2018-11-26T10:20:11.417Z,100.00
2018-11-26T10:22:39.622Z,100.00
2018-11-26T10:25:11.869Z,100.00
2018-11-26T10:27:40.134Z,100.00
2018-11-26T10:30:10.582Z,100.00
2018-11-26T10:32:39.042Z,100.00
2018-11-26T10:35:08.679Z,100.00
2018-11-26T10:37:36.865Z,98.49
2018-11-26T10:40:11.816Z,99.23
2018-11-26T10:42:39.909Z,99.02
2018-11-26T10:45:10.505Z,99.01
2018-11-26T10:47:38.609Z,98.75
2018-11-26T10:50:10.562Z,98.65
2018-11-26T10:52:38.671Z,98.29
2018-11-26T10:55:23.898Z,98.48
2018-11-26T10:57:52.550Z,95.64
2018-11-26T11:00:26.071Z,94.89
2018-11-26T11:02:54.170Z,95.03
2018-11-26T11:05:22.267Z,95.74
2018-11-26T11:07:50.367Z,94.74
2018-11-26T11:10:34.141Z,93.29
2018-11-26T11:13:02.261Z,92.90
2018-11-26T11:15:30.334Z,92.23
2018-11-26T11:17:58.408Z,91.71
2018-11-26T11:20:27.795Z,90.24
2018-11-26T11:22:55.906Z,89.21
2018-11-26T11:25:24.310Z,88.09
2018-11-26T11:27:52.652Z,87.29
2018-11-26T11:30:25.642Z,86.24
2018-11-26T11:32:53.753Z,86.66
2018-11-26T11:35:21.879Z,85.75
2018-11-26T11:37:50.783Z,86.17
2018-11-26T11:40:19.779Z,85.41
2018-11-26T11:42:48.088Z,86.31
2018-11-26T11:45:16.240Z,86.17
2018-11-26T11:47:44.405Z,86.40
2018-11-26T11:50:13.361Z,86.40
2018-11-26T11:52:41.499Z,86.12
2018-11-26T11:55:25.737Z,86.52
2018-11-26T11:57:53.891Z,85.49
2018-11-26T12:00:30.914Z,83.92
2018-11-26T12:02:59.721Z,84.32
2018-11-26T12:05:27.870Z,84.54
2018-11-26T12:07:55.952Z,84.80
2018-11-26T12:10:24.035Z,85.19
2018-11-26T12:12:52.127Z,86.89
2018-11-26T12:15:20.423Z,86.29
2018-11-26T12:17:49.306Z,86.38
2018-11-26T12:20:17.423Z,86.63
2018-11-26T12:22:45.775Z,86.38
2018-11-26T12:25:16.996Z,84.76
2018-11-26T12:27:45.113Z,85.46
2018-11-26T12:30:19.336Z,85.36
2018-11-26T12:32:47.435Z,85.10
2018-11-26T12:35:15.599Z,85.77
2018-11-26T12:37:43.707Z,84.83
2018-11-26T12:40:14.047Z,85.35
2018-11-26T12:42:42.175Z,85.41
2018-11-26T12:45:27.412Z,85.41
2018-11-26T12:47:55.505Z,84.95
2018-11-26T12:50:23.681Z,84.56
2018-11-26T12:55:26.601Z,84.68
2018-11-26T12:57:55.563Z,85.52
2018-11-26T13:00:25.657Z,85.24
2018-11-26T13:02:54.930Z,85.94
2018-11-26T13:05:23.182Z,84.32
2018-11-26T13:07:51.344Z,85.12
2018-11-26T13:10:20.893Z,85.34
2018-11-26T13:12:49.671Z,86.66
2018-11-26T13:15:18.814Z,86.31
2018-11-26T13:17:46.955Z,86.52
2018-11-26T13:20:18.086Z,87.12
2018-11-26T13:22:46.187Z,86.30
2018-11-26T13:25:16.505Z,85.92
2018-11-26T13:27:46.227Z,86.59
2018-11-26T13:30:16.647Z,85.24
2018-11-26T13:32:46.178Z,86.03
2018-11-26T13:35:15.053Z,86.00
2018-11-26T13:37:43.131Z,86.84
2018-11-26T13:40:15.291Z,87.51
2018-11-26T13:42:43.475Z,87.85
2018-11-26T13:45:17.851Z,87.36
2018-11-26T13:47:46.004Z,87.57
2018-11-26T13:50:18.139Z,87.60
2018-11-26T13:52:46.251Z,87.95
2018-11-26T13:55:14.354Z,87.66
2018-11-26T13:57:42.440Z,87.69
2018-11-26T14:00:13.648Z,88.39
2018-11-26T14:02:41.827Z,87.74
2018-11-26T14:05:11.103Z,87.67
2018-11-26T14:07:39.251Z,87.94
2018-11-26T14:10:12.958Z,88.35
2018-11-26T14:12:42.328Z,89.61
2018-11-26T14:15:12.237Z,89.92
2018-11-26T14:17:40.403Z,88.65
2018-11-26T14:20:11.760Z,90.02
2018-11-26T14:22:39.943Z,89.64
2018-11-26T14:25:10.451Z,89.99
2018-11-26T14:27:38.567Z,90.42
2018-11-26T14:30:09.696Z,90.84
2018-11-26T14:32:37.797Z,91.62
2018-11-26T14:35:07.155Z,91.62
2018-11-26T14:37:35.248Z,92.29
2018-11-26T14:40:03.332Z,90.55
2018-11-26T14:42:31.413Z,89.87
2018-11-26T14:44:59.508Z,91.21
2018-11-26T14:47:27.612Z,92.24
2018-11-26T14:49:56.540Z,93.13
2018-11-26T14:52:24.696Z,93.51
2018-11-26T14:54:52.851Z,93.45
2018-11-26T14:57:20.927Z,93.84
2018-11-26T14:59:49.011Z,93.87
2018-11-26T15:02:17.085Z,94.35
2018-11-26T15:04:45.215Z,94.27
2018-11-26T15:07:13.330Z,94.94
2018-11-26T15:09:41.482Z,95.31
2018-11-26T15:12:09.596Z,95.68
2018-11-26T15:14:37.724Z,95.95
2018-11-26T15:17:05.825Z,96.08
2018-11-26T15:19:33.948Z,96.21
2018-11-26T15:22:02.043Z,96.30
2018-11-26T15:24:30.157Z,96.29
2018-11-26T15:26:58.252Z,96.58
2018-11-26T15:29:26.323Z,97.18
2018-11-26T15:34:18.907Z,97.33
2018-11-26T15:36:47.071Z,97.32
2018-11-26T15:39:15.190Z,96.91
2018-11-26T15:41:43.337Z,97.25
2018-11-26T15:44:11.475Z,96.95
2018-11-26T15:46:39.583Z,96.95
2018-11-26T15:49:07.679Z,96.72
2018-11-26T15:51:35.783Z,96.35
2018-11-26T15:54:03.872Z,96.48
2018-11-26T15:56:31.959Z,97.03
2018-11-26T15:59:00.086Z,97.95
2018-11-26T16:01:28.192Z,98.99
2018-11-26T16:03:56.300Z,99.62
2018-11-26T16:06:24.432Z,99.69
2018-11-26T16:08:52.528Z,100.00
2018-11-26T16:11:20.608Z,99.96
2018-11-26T16:13:48.721Z,99.78
2018-11-26T16:16:17.449Z,99.88
2018-11-26T16:18:52.159Z,99.84
2018-11-26T16:21:23.072Z,99.62
2018-11-26T16:23:51.387Z,99.14
2018-11-26T16:26:19.476Z,99.38
2018-11-26T16:28:47.603Z,99.13
2018-11-26T16:31:15.723Z,99.46
2018-11-26T16:33:43.812Z,99.26
2018-11-26T16:36:11.995Z,99.15
2018-11-26T16:38:40.082Z,99.42
2018-11-26T16:41:08.139Z,99.67
2018-11-26T16:43:36.256Z,99.48
2018-11-26T16:46:04.444Z,99.50
2018-11-26T16:48:32.545Z,99.47
2018-11-26T16:51:00.648Z,99.00
2018-11-26T16:53:28.781Z,99.33
2018-11-26T16:55:56.915Z,98.93
2018-11-26T16:58:25.064Z,99.75
2018-11-26T17:00:53.170Z,99.94
2018-11-26T17:03:21.417Z,100.00
2018-11-26T17:05:49.531Z,100.00
2018-11-26T17:08:17.652Z,100.00
2018-11-26T17:10:45.733Z,100.00
2018-11-26T17:13:14.524Z,100.00
2018-11-26T17:15:42.739Z,100.00
2018-11-26T17:18:10.865Z,100.00
2018-11-26T17:20:39.010Z,100.00
2018-11-26T17:23:07.810Z,100.00
2018-11-26T17:25:36.050Z,100.00
2018-11-26T17:28:04.298Z,100.00
2018-11-26T17:30:32.476Z,100.00
2018-11-26T17:33:02.279Z,100.00
2018-11-26T17:35:31.003Z,100.00
2018-11-26T17:37:59.270Z,100.00
2018-11-26T17:40:27.660Z,100.00
2018-11-26T17:42:56.179Z,100.00
2018-11-26T17:45:25.127Z,99.99
2018-11-26T17:47:58.491Z,99.97
2018-11-26T17:50:35.193Z,100.00
2018-11-26T17:53:03.403Z,99.95
2018-11-26T17:55:31.559Z,100.00
2018-11-26T17:57:59.748Z,100.00
2018-11-26T18:00:30.236Z,100.00
2018-11-26T18:02:58.392Z,100.00
2018-11-26T18:05:27.954Z,100.00
2018-11-26T18:07:58.916Z,100.00
2018-11-26T18:10:27.075Z,100.00
2018-11-26T18:12:55.264Z,100.00
2018-11-26T18:15:23.565Z,100.00
2018-11-26T18:17:51.755Z,100.00
2018-11-26T18:20:20.992Z,100.00
2018-11-26T18:22:50.642Z,100.00
2018-11-26T18:25:19.386Z,100.00
2018-11-26T18:27:59.502Z,100.00
2018-11-26T18:30:35.179Z,100.00
2018-11-26T18:33:03.325Z,100.00
2018-11-26T18:35:31.455Z,100.00
2018-11-26T18:37:59.613Z,100.00
2018-11-26T18:40:27.715Z,100.00
2018-11-26T18:42:55.821Z,100.00
2018-11-26T18:45:23.964Z,100.00
2018-11-26T18:47:52.126Z,100.00
2018-11-26T18:50:21.388Z,100.00
2018-11-26T18:52:50.685Z,99.64
2018-11-26T18:55:19.069Z,99.82
2018-11-26T18:57:47.222Z,99.45
2018-11-26T19:00:25.483Z,100.00
2018-11-26T19:02:54.323Z,100.00
2018-11-26T19:05:22.552Z,100.00
2018-11-26T19:07:51.069Z,100.00
2018-11-26T19:10:27.021Z,100.00
2018-11-26T19:13:04.717Z,100.00
2018-11-26T19:15:34.555Z,100.00
2018-11-26T19:18:08.548Z,99.48
2018-11-26T19:20:36.667Z,99.56
2018-11-26T19:23:05.023Z,100.00
2018-11-26T19:25:33.118Z,100.00
2018-11-26T19:28:01.235Z,100.00
2018-11-26T19:30:29.337Z,99.84
2018-11-26T19:32:57.429Z,99.04
2018-11-26T19:35:25.567Z,97.62
2018-11-26T19:37:53.670Z,96.43
2018-11-26T19:40:21.781Z,97.82
2018-11-26T19:42:49.902Z,98.97
2018-11-26T19:45:19.338Z,98.84
2018-11-26T19:47:47.521Z,99.53
2018-11-26T19:50:16.636Z,99.90
2018-11-26T19:52:45.538Z,100.00
2018-11-26T19:55:16.059Z,100.00
2018-11-26T19:57:44.167Z,99.99
2018-11-26T20:00:17.731Z,100.00
2018-11-26T20:02:47.528Z,100.00
2018-11-26T20:05:36.112Z,100.00
2018-11-26T20:08:04.236Z,100.00
2018-11-26T20:10:32.400Z,100.00
2018-11-26T20:13:00.582Z,100.00
2018-11-26T20:15:28.692Z,100.00
2018-11-26T20:17:59.102Z,100.00
2018-11-26T20:20:24.905Z,100.00
2018-11-26T20:22:53.801Z,100.00
2018-11-26T20:25:21.180Z,100.00
2018-11-26T20:27:49.287Z,100.00
2018-11-26T20:30:17.502Z,100.00
2018-11-26T20:32:47.130Z,100.00
2018-11-26T20:35:15.362Z,100.00
2018-11-26T20:37:43.536Z,100.00
2018-11-26T20:40:13.071Z,100.00
2018-11-26T20:42:47.172Z,100.00
2018-11-26T20:45:16.307Z,100.00
2018-11-26T20:47:45.373Z,100.00
2018-11-26T20:50:18.275Z,100.00
2018-11-26T20:52:46.387Z,100.00
2018-11-26T20:55:16.993Z,100.00
2018-11-26T20:57:45.135Z,100.00
2018-11-26T21:00:16.537Z,100.00
2018-11-26T21:02:45.212Z,100.00
2018-11-26T21:05:13.375Z,100.00
2018-11-26T21:07:41.530Z,100.00
2018-11-26T21:10:11.786Z,100.00
2018-11-26T21:12:39.947Z,100.00
2018-11-26T21:15:14.482Z,100.00
2018-11-26T21:17:43.897Z,100.00
2018-11-26T21:20:13.904Z,100.00
2018-11-26T21:22:42.024Z,100.00
2018-11-26T21:25:12.108Z,100.00
2018-11-26T21:27:40.224Z,100.00
2018-11-26T21:30:14.494Z,100.00
2018-11-26T21:32:42.595Z,100.00
2018-11-26T21:35:11.695Z,100.00
2018-11-26T21:37:40.786Z,100.00
2018-11-26T21:40:10.113Z,100.00
2018-11-26T21:42:38.204Z,100.00
2018-11-26T21:45:09.631Z,100.00
2018-11-26T21:47:37.759Z,100.00
2018-11-26T21:50:10.280Z,100.00
2018-11-26T21:52:38.404Z,100.00
2018-11-26T21:55:08.888Z,100.00
2018-11-26T21:57:37.051Z,100.00
2018-11-26T22:00:14.146Z,100.00
2018-11-26T22:02:42.255Z,100.00
2018-11-26T22:05:10.712Z,100.00
2018-11-26T22:07:38.824Z,100.00
2018-11-26T22:10:09.648Z,100.00
2018-11-26T22:12:37.756Z,100.00
2018-11-26T22:15:09.359Z,100.00
2018-11-26T22:17:38.052Z,100.00
2018-11-26T22:20:11.183Z,100.00
2018-11-26T22:22:39.288Z,100.00
2018-11-26T22:25:08.763Z,100.00
2018-11-26T22:27:36.895Z,100.00
2018-11-26T22:30:10.302Z,100.00
2018-11-26T22:32:38.403Z,100.00
2018-11-26T22:35:06.987Z,100.00
2018-11-26T22:37:35.079Z,100.00
2018-11-26T22:40:03.211Z,100.00
2018-11-26T22:42:31.344Z,100.00
2018-11-26T22:44:59.477Z,100.00
2018-11-26T22:47:27.587Z,100.00
2018-11-26T22:49:55.679Z,100.00
2018-11-26T22:52:23.783Z,100.00
2018-11-26T22:54:51.859Z,100.00
2018-11-26T22:57:19.971Z,100.00
2018-11-26T22:59:48.071Z,100.00
2018-11-26T23:02:16.203Z,100.00
2018-11-26T23:04:44.291Z,100.00
2018-11-26T23:07:12.485Z,100.00
2018-11-26T23:09:40.567Z,100.00
2018-11-26T23:12:08.678Z,100.00
2018-11-26T23:14:36.811Z,100.00
2018-11-26T23:17:04.983Z,100.00
2018-11-26T23:19:33.103Z,100.00
2018-11-26T23:22:01.185Z,100.00
2018-11-26T23:24:29.290Z,100.00
2018-11-26T23:26:57.407Z,100.00
2018-11-26T23:29:25.498Z,100.00
2018-11-26T23:31:53.615Z,100.00
2018-11-26T23:34:21.716Z,100.00
2018-11-26T23:36:49.833Z,100.00
2018-11-26T23:39:17.959Z,100.00
2018-11-26T23:41:46.087Z,100.00
2018-11-26T23:44:14.202Z,100.00
2018-11-26T23:46:42.319Z,100.00
2018-11-26T23:49:10.415Z,100.00
2018-11-26T23:51:38.523Z,100.00
2018-11-26T23:54:06.636Z,100.00
2018-11-26T23:56:34.763Z,100.00
2018-11-26T23:59:02.887Z,100.00
